sensor_id;sensor_type;location;lat;lon;timestamp;P1;durP1;ratioP1;P2;durP2;ratioP2
33160;SDS011;19522;45.656;11.302;2023-07-13T00:02:21;4.18;;;1.02;;
33160;SDS011;19522;45.656;11.302;2023-07-13T00:04:47;3.05;;;1.02;;
33160;SDS011;19522;45.656;11.302;2023-07-13T00:07:12;2.50;;;1.23;;
33160;SDS011;19522;45.656;11.302;2023-07-13T00:09:39;3.55;;;1.13;;
33160;SDS011;19522;45.656;11.302;2023-07-13T00:12:19;6.70;;;2.38;;
33160;SDS011;19522;45.656;11.302;2023-07-13T00:14:57;16.52;;;5.28;;
33160;SDS011;19522;45.656;11.302;2023-07-13T00:17:24;11.85;;;4.07;;
33160;SDS011;19522;45.656;11.302;2023-07-13T00:19:51;11.40;;;4.50;;
33160;SDS011;19522;45.656;11.302;2023-07-13T00:22:17;8.80;;;4.03;;
33160;SDS011;19522;45.656;11.302;2023-07-13T00:24:43;10.27;;;4.00;;
33160;SDS011;19522;45.656;11.302;2023-07-13T00:27:09;10.60;;;4.00;;
33160;SDS011;19522;45.656;11.302;2023-07-13T00:29:36;7.88;;;4.32;;
33160;SDS011;19522;45.656;11.302;2023-07-13T00:32:05;9.68;;;5.35;;
33160;SDS011;19522;45.656;11.302;2023-07-13T00:34:32;7.55;;;3.78;;
33160;SDS011;19522;45.656;11.302;2023-07-13T00:36:58;8.15;;;3.17;;
33160;SDS011;19522;45.656;11.302;2023-07-13T00:39:24;6.95;;;2.97;;
33160;SDS011;19522;45.656;11.302;2023-07-13T00:41:49;9.52;;;2.90;;
33160;SDS011;19522;45.656;11.302;2023-07-13T00:44:16;7.95;;;3.53;;
33160;SDS011;19522;45.656;11.302;2023-07-13T00:46:43;10.75;;;3.80;;
33160;SDS011;19522;45.656;11.302;2023-07-13T00:49:10;11.95;;;3.97;;
33160;SDS011;19522;45.656;11.302;2023-07-13T00:51:49;9.63;;;3.55;;
33160;SDS011;19522;45.656;11.302;2023-07-13T00:54:32;11.82;;;3.83;;
33160;SDS011;19522;45.656;11.302;2023-07-13T00:57:03;7.63;;;3.42;;
33160;SDS011;19522;45.656;11.302;2023-07-13T00:59:34;6.70;;;3.30;;
33160;SDS011;19522;45.656;11.302;2023-07-13T01:02:02;9.60;;;3.20;;
33160;SDS011;19522;45.656;11.302;2023-07-13T01:04:28;7.60;;;3.45;;
33160;SDS011;19522;45.656;11.302;2023-07-13T01:06:55;13.90;;;4.20;;
33160;SDS011;19522;45.656;11.302;2023-07-13T01:09:22;8.00;;;3.17;;
33160;SDS011;19522;45.656;11.302;2023-07-13T01:11:47;7.10;;;3.40;;
33160;SDS011;19522;45.656;11.302;2023-07-13T01:14:13;10.75;;;3.00;;
33160;SDS011;19522;45.656;11.302;2023-07-13T01:16:40;8.48;;;2.58;;
33160;SDS011;19522;45.656;11.302;2023-07-13T01:19:23;8.68;;;3.15;;
33160;SDS011;19522;45.656;11.302;2023-07-13T01:22:08;4.72;;;2.90;;
33160;SDS011;19522;45.656;11.302;2023-07-13T01:24:37;5.75;;;2.90;;
33160;SDS011;19522;45.656;11.302;2023-07-13T01:27:04;11.80;;;3.15;;
33160;SDS011;19522;45.656;11.302;2023-07-13T01:29:35;7.10;;;3.00;;
33160;SDS011;19522;45.656;11.302;2023-07-13T01:32:10;6.95;;;2.75;;
33160;SDS011;19522;45.656;11.302;2023-07-13T01:34:37;13.52;;;3.63;;
33160;SDS011;19522;45.656;11.302;2023-07-13T01:37:05;5.43;;;3.13;;
33160;SDS011;19522;45.656;11.302;2023-07-13T01:39:31;6.22;;;2.72;;
33160;SDS011;19522;45.656;11.302;2023-07-13T01:41:56;8.85;;;2.63;;
33160;SDS011;19522;45.656;11.302;2023-07-13T01:44:22;8.05;;;2.88;;
33160;SDS011;19522;45.656;11.302;2023-07-13T01:46:48;5.05;;;2.50;;
33160;SDS011;19522;45.656;11.302;2023-07-13T01:49:13;4.60;;;2.15;;
33160;SDS011;19522;45.656;11.302;2023-07-13T01:51:39;6.97;;;2.30;;
33160;SDS011;19522;45.656;11.302;2023-07-13T01:54:04;7.95;;;2.60;;
33160;SDS011;19522;45.656;11.302;2023-07-13T01:56:30;5.07;;;2.22;;
33160;SDS011;19522;45.656;11.302;2023-07-13T01:58:55;4.10;;;1.83;;
33160;SDS011;19522;45.656;11.302;2023-07-13T02:01:22;6.00;;;2.20;;
33160;SDS011;19522;45.656;11.302;2023-07-13T02:03:49;8.13;;;2.50;;
33160;SDS011;19522;45.656;11.302;2023-07-13T02:06:15;7.32;;;1.90;;
33160;SDS011;19522;45.656;11.302;2023-07-13T02:08:41;6.03;;;2.55;;
33160;SDS011;19522;45.656;11.302;2023-07-13T02:11:07;4.28;;;2.13;;
33160;SDS011;19522;45.656;11.302;2023-07-13T02:13:34;4.95;;;1.80;;
33160;SDS011;19522;45.656;11.302;2023-07-13T02:16:00;4.45;;;1.60;;
33160;SDS011;19522;45.656;11.302;2023-07-13T02:18:26;5.72;;;2.00;;
33160;SDS011;19522;45.656;11.302;2023-07-13T02:20:51;4.78;;;1.70;;
33160;SDS011;19522;45.656;11.302;2023-07-13T02:23:17;4.25;;;1.27;;
33160;SDS011;19522;45.656;11.302;2023-07-13T02:25:43;6.63;;;1.60;;
33160;SDS011;19522;45.656;11.302;2023-07-13T02:28:08;3.20;;;1.40;;
33160;SDS011;19522;45.656;11.302;2023-07-13T02:30:35;4.90;;;1.45;;
33160;SDS011;19522;45.656;11.302;2023-07-13T02:33:00;4.20;;;1.60;;
33160;SDS011;19522;45.656;11.302;2023-07-13T02:35:26;4.10;;;1.50;;
33160;SDS011;19522;45.656;11.302;2023-07-13T02:37:51;5.35;;;1.55;;
33160;SDS011;19522;45.656;11.302;2023-07-13T02:40:17;4.82;;;1.67;;
33160;SDS011;19522;45.656;11.302;2023-07-13T02:42:45;3.53;;;1.30;;
33160;SDS011;19522;45.656;11.302;2023-07-13T02:45:11;6.25;;;1.88;;
33160;SDS011;19522;45.656;11.302;2023-07-13T02:47:39;4.03;;;1.30;;
33160;SDS011;19522;45.656;11.302;2023-07-13T02:50:08;5.80;;;1.58;;
33160;SDS011;19522;45.656;11.302;2023-07-13T02:52:34;3.45;;;1.52;;
33160;SDS011;19522;45.656;11.302;2023-07-13T02:55:00;1.48;;;1.00;;
33160;SDS011;19522;45.656;11.302;2023-07-13T02:57:25;2.78;;;1.27;;
33160;SDS011;19522;45.656;11.302;2023-07-13T02:59:53;5.40;;;1.42;;
33160;SDS011;19522;45.656;11.302;2023-07-13T03:02:18;5.45;;;1.73;;
33160;SDS011;19522;45.656;11.302;2023-07-13T03:04:44;4.93;;;1.35;;
33160;SDS011;19522;45.656;11.302;2023-07-13T03:07:10;4.00;;;1.50;;
33160;SDS011;19522;45.656;11.302;2023-07-13T03:09:35;3.78;;;1.30;;
33160;SDS011;19522;45.656;11.302;2023-07-13T03:12:01;2.75;;;1.05;;
33160;SDS011;19522;45.656;11.302;2023-07-13T03:14:27;4.47;;;1.70;;
33160;SDS011;19522;45.656;11.302;2023-07-13T03:16:53;3.20;;;1.20;;
33160;SDS011;19522;45.656;11.302;2023-07-13T03:19:19;3.67;;;1.70;;
33160;SDS011;19522;45.656;11.302;2023-07-13T03:21:45;6.03;;;1.42;;
33160;SDS011;19522;45.656;11.302;2023-07-13T03:24:11;3.78;;;1.20;;
33160;SDS011;19522;45.656;11.302;2023-07-13T03:26:36;4.28;;;1.52;;
33160;SDS011;19522;45.656;11.302;2023-07-13T03:29:02;5.28;;;1.35;;
33160;SDS011;19522;45.656;11.302;2023-07-13T03:31:30;4.25;;;1.48;;
33160;SDS011;19522;45.656;11.302;2023-07-13T03:33:58;4.32;;;1.45;;
33160;SDS011;19522;45.656;11.302;2023-07-13T03:36:25;5.03;;;1.55;;
33160;SDS011;19522;45.656;11.302;2023-07-13T03:38:54;3.90;;;1.52;;
33160;SDS011;19522;45.656;11.302;2023-07-13T03:41:22;3.35;;;1.45;;
33160;SDS011;19522;45.656;11.302;2023-07-13T03:43:48;4.43;;;1.25;;
33160;SDS011;19522;45.656;11.302;2023-07-13T03:46:14;5.00;;;1.40;;
33160;SDS011;19522;45.656;11.302;2023-07-13T03:48:41;2.28;;;1.30;;
33160;SDS011;19522;45.656;11.302;2023-07-13T03:51:10;6.25;;;1.73;;
33160;SDS011;19522;45.656;11.302;2023-07-13T03:53:38;6.13;;;1.45;;
33160;SDS011;19522;45.656;11.302;2023-07-13T03:56:06;4.60;;;1.77;;
33160;SDS011;19522;45.656;11.302;2023-07-13T03:58:36;5.28;;;1.35;;
33160;SDS011;19522;45.656;11.302;2023-07-13T04:01:04;2.67;;;1.40;;
33160;SDS011;19522;45.656;11.302;2023-07-13T04:03:31;3.40;;;1.58;;
33160;SDS011;19522;45.656;11.302;2023-07-13T04:05:58;3.75;;;1.42;;
33160;SDS011;19522;45.656;11.302;2023-07-13T04:08:29;5.57;;;1.60;;
33160;SDS011;19522;45.656;11.302;2023-07-13T04:10:56;3.45;;;1.30;;
33160;SDS011;19522;45.656;11.302;2023-07-13T04:13:25;3.15;;;1.40;;
33160;SDS011;19522;45.656;11.302;2023-07-13T04:15:52;4.72;;;1.27;;
33160;SDS011;19522;45.656;11.302;2023-07-13T04:18:19;5.57;;;1.40;;
33160;SDS011;19522;45.656;11.302;2023-07-13T04:20:46;4.45;;;1.70;;
33160;SDS011;19522;45.656;11.302;2023-07-13T04:23:12;3.67;;;1.15;;
33160;SDS011;19522;45.656;11.302;2023-07-13T04:25:38;2.67;;;1.05;;
33160;SDS011;19522;45.656;11.302;2023-07-13T04:28:03;2.63;;;1.10;;
33160;SDS011;19522;45.656;11.302;2023-07-13T04:30:30;7.47;;;1.55;;
33160;SDS011;19522;45.656;11.302;2023-07-13T04:32:56;4.65;;;1.80;;
33160;SDS011;19522;45.656;11.302;2023-07-13T04:35:24;3.40;;;1.38;;
33160;SDS011;19522;45.656;11.302;2023-07-13T04:37:50;4.35;;;1.10;;
33160;SDS011;19522;45.656;11.302;2023-07-13T04:40:16;2.58;;;1.45;;
33160;SDS011;19522;45.656;11.302;2023-07-13T04:42:43;4.53;;;1.13;;
33160;SDS011;19522;45.656;11.302;2023-07-13T04:45:09;2.92;;;0.93;;
33160;SDS011;19522;45.656;11.302;2023-07-13T04:47:35;3.83;;;1.10;;
33160;SDS011;19522;45.656;11.302;2023-07-13T04:50:01;2.72;;;1.40;;
33160;SDS011;19522;45.656;11.302;2023-07-13T04:52:27;6.47;;;1.52;;
33160;SDS011;19522;45.656;11.302;2023-07-13T04:54:52;3.40;;;1.50;;
33160;SDS011;19522;45.656;11.302;2023-07-13T04:57:18;4.45;;;1.70;;
33160;SDS011;19522;45.656;11.302;2023-07-13T04:59:43;5.20;;;1.42;;
33160;SDS011;19522;45.656;11.302;2023-07-13T05:02:10;4.78;;;1.40;;
33160;SDS011;19522;45.656;11.302;2023-07-13T05:04:35;4.80;;;1.52;;
33160;SDS011;19522;45.656;11.302;2023-07-13T05:07:01;4.28;;;1.58;;
33160;SDS011;19522;45.656;11.302;2023-07-13T05:09:27;7.00;;;1.60;;
33160;SDS011;19522;45.656;11.302;2023-07-13T05:11:52;3.45;;;1.30;;
33160;SDS011;19522;45.656;11.302;2023-07-13T05:14:18;3.92;;;1.50;;
33160;SDS011;19522;45.656;11.302;2023-07-13T05:16:43;3.67;;;1.70;;
33160;SDS011;19522;45.656;11.302;2023-07-13T05:19:09;3.78;;;1.40;;
33160;SDS011;19522;45.656;11.302;2023-07-13T05:21:35;3.95;;;1.50;;
33160;SDS011;19522;45.656;11.302;2023-07-13T05:24:01;3.63;;;1.50;;
33160;SDS011;19522;45.656;11.302;2023-07-13T05:26:26;4.95;;;1.55;;
33160;SDS011;19522;45.656;11.302;2023-07-13T05:28:52;3.80;;;1.23;;
33160;SDS011;19522;45.656;11.302;2023-07-13T05:31:18;5.50;;;1.10;;
33160;SDS011;19522;45.656;11.302;2023-07-13T05:33:46;2.75;;;1.50;;
33160;SDS011;19522;45.656;11.302;2023-07-13T05:36:12;2.53;;;1.23;;
33160;SDS011;19522;45.656;11.302;2023-07-13T05:38:37;2.60;;;1.17;;
33160;SDS011;19522;45.656;11.302;2023-07-13T05:41:03;3.80;;;1.20;;
33160;SDS011;19522;45.656;11.302;2023-07-13T05:43:29;3.20;;;1.10;;
33160;SDS011;19522;45.656;11.302;2023-07-13T05:45:55;5.38;;;1.40;;
33160;SDS011;19522;45.656;11.302;2023-07-13T05:48:21;3.88;;;1.27;;
33160;SDS011;19522;45.656;11.302;2023-07-13T05:50:47;1.95;;;1.17;;
33160;SDS011;19522;45.656;11.302;2023-07-13T05:53:14;4.07;;;1.20;;
33160;SDS011;19522;45.656;11.302;2023-07-13T05:55:44;4.40;;;1.23;;
33160;SDS011;19522;45.656;11.302;2023-07-13T05:58:13;3.83;;;1.63;;
33160;SDS011;19522;45.656;11.302;2023-07-13T06:00:39;6.93;;;1.17;;
33160;SDS011;19522;45.656;11.302;2023-07-13T06:03:05;4.75;;;1.40;;
33160;SDS011;19522;45.656;11.302;2023-07-13T06:05:32;3.25;;;1.20;;
33160;SDS011;19522;45.656;11.302;2023-07-13T06:07:59;5.50;;;1.83;;
33160;SDS011;19522;45.656;11.302;2023-07-13T06:10:24;7.28;;;1.10;;
33160;SDS011;19522;45.656;11.302;2023-07-13T06:12:50;2.20;;;1.25;;
33160;SDS011;19522;45.656;11.302;2023-07-13T06:15:16;3.47;;;2.00;;
33160;SDS011;19522;45.656;11.302;2023-07-13T06:17:42;4.22;;;1.17;;
33160;SDS011;19522;45.656;11.302;2023-07-13T06:20:09;4.88;;;1.50;;
33160;SDS011;19522;45.656;11.302;2023-07-13T06:22:35;3.45;;;1.58;;
33160;SDS011;19522;45.656;11.302;2023-07-13T06:25:00;4.82;;;1.40;;
33160;SDS011;19522;45.656;11.302;2023-07-13T06:27:26;4.88;;;1.35;;
33160;SDS011;19522;45.656;11.302;2023-07-13T06:29:51;5.10;;;1.40;;
33160;SDS011;19522;45.656;11.302;2023-07-13T06:32:17;5.32;;;1.63;;
33160;SDS011;19522;45.656;11.302;2023-07-13T06:34:42;2.50;;;1.27;;
33160;SDS011;19522;45.656;11.302;2023-07-13T06:37:08;2.42;;;1.33;;
33160;SDS011;19522;45.656;11.302;2023-07-13T06:39:34;3.15;;;1.35;;
33160;SDS011;19522;45.656;11.302;2023-07-13T06:42:00;3.35;;;1.40;;
33160;SDS011;19522;45.656;11.302;2023-07-13T06:44:26;3.55;;;1.10;;
33160;SDS011;19522;45.656;11.302;2023-07-13T06:46:51;7.53;;;1.20;;
33160;SDS011;19522;45.656;11.302;2023-07-13T06:49:17;5.70;;;1.23;;
33160;SDS011;19522;45.656;11.302;2023-07-13T06:51:42;6.22;;;1.30;;
33160;SDS011;19522;45.656;11.302;2023-07-13T06:54:08;7.65;;;1.73;;
33160;SDS011;19522;45.656;11.302;2023-07-13T06:56:34;5.28;;;1.35;;
33160;SDS011;19522;45.656;11.302;2023-07-13T06:58:59;5.47;;;2.40;;
33160;SDS011;19522;45.656;11.302;2023-07-13T07:01:25;2.65;;;1.17;;
33160;SDS011;19522;45.656;11.302;2023-07-13T07:03:51;4.75;;;1.25;;
33160;SDS011;19522;45.656;11.302;2023-07-13T07:06:17;5.53;;;1.20;;
33160;SDS011;19522;45.656;11.302;2023-07-13T07:08:45;5.75;;;1.35;;
33160;SDS011;19522;45.656;11.302;2023-07-13T07:11:16;4.72;;;1.23;;
33160;SDS011;19522;45.656;11.302;2023-07-13T07:13:47;1.73;;;1.30;;
33160;SDS011;19522;45.656;11.302;2023-07-13T07:16:16;4.97;;;1.15;;
33160;SDS011;19522;45.656;11.302;2023-07-13T07:18:42;7.82;;;2.05;;
33160;SDS011;19522;45.656;11.302;2023-07-13T07:21:08;4.88;;;1.67;;
33160;SDS011;19522;45.656;11.302;2023-07-13T07:23:34;5.22;;;1.25;;
33160;SDS011;19522;45.656;11.302;2023-07-13T07:25:59;4.90;;;1.60;;
33160;SDS011;19522;45.656;11.302;2023-07-13T07:28:25;4.70;;;1.52;;
33160;SDS011;19522;45.656;11.302;2023-07-13T07:30:53;4.00;;;1.50;;
33160;SDS011;19522;45.656;11.302;2023-07-13T07:33:20;5.85;;;1.55;;
33160;SDS011;19522;45.656;11.302;2023-07-13T07:35:46;4.78;;;2.05;;
33160;SDS011;19522;45.656;11.302;2023-07-13T07:38:11;5.75;;;1.50;;
33160;SDS011;19522;45.656;11.302;2023-07-13T07:40:37;2.88;;;1.23;;
33160;SDS011;19522;45.656;11.302;2023-07-13T07:43:05;8.95;;;1.75;;
33160;SDS011;19522;45.656;11.302;2023-07-13T07:45:31;1.98;;;1.08;;
33160;SDS011;19522;45.656;11.302;2023-07-13T07:47:57;3.90;;;1.40;;
33160;SDS011;19522;45.656;11.302;2023-07-13T07:50:25;5.22;;;1.67;;
33160;SDS011;19522;45.656;11.302;2023-07-13T07:52:51;4.22;;;1.70;;
33160;SDS011;19522;45.656;11.302;2023-07-13T07:55:17;3.92;;;1.27;;
33160;SDS011;19522;45.656;11.302;2023-07-13T07:57:43;4.72;;;1.55;;
33160;SDS011;19522;45.656;11.302;2023-07-13T08:00:09;4.28;;;1.52;;
33160;SDS011;19522;45.656;11.302;2023-07-13T08:02:35;5.63;;;1.83;;
33160;SDS011;19522;45.656;11.302;2023-07-13T08:05:00;3.97;;;1.58;;
33160;SDS011;19522;45.656;11.302;2023-07-13T08:07:26;2.17;;;1.38;;
33160;SDS011;19522;45.656;11.302;2023-07-13T08:09:52;5.43;;;1.48;;
33160;SDS011;19522;45.656;11.302;2023-07-13T08:12:21;4.32;;;1.70;;
33160;SDS011;19522;45.656;11.302;2023-07-13T08:14:49;6.43;;;1.63;;
33160;SDS011;19522;45.656;11.302;2023-07-13T08:17:21;3.60;;;1.30;;
33160;SDS011;19522;45.656;11.302;2023-07-13T08:19:47;5.15;;;1.38;;
33160;SDS011;19522;45.656;11.302;2023-07-13T08:22:13;3.53;;;1.83;;
33160;SDS011;19522;45.656;11.302;2023-07-13T08:24:38;4.30;;;2.05;;
33160;SDS011;19522;45.656;11.302;2023-07-13T08:27:04;3.78;;;1.58;;
33160;SDS011;19522;45.656;11.302;2023-07-13T08:29:30;6.88;;;1.40;;
33160;SDS011;19522;45.656;11.302;2023-07-13T08:31:59;5.82;;;1.80;;
33160;SDS011;19522;45.656;11.302;2023-07-13T08:34:24;4.10;;;1.50;;
33160;SDS011;19522;45.656;11.302;2023-07-13T08:36:50;7.63;;;1.95;;
33160;SDS011;19522;45.656;11.302;2023-07-13T08:39:16;7.55;;;1.80;;
33160;SDS011;19522;45.656;11.302;2023-07-13T08:41:41;6.00;;;1.77;;
33160;SDS011;19522;45.656;11.302;2023-07-13T08:44:19;3.65;;;1.50;;
33160;SDS011;19522;45.656;11.302;2023-07-13T08:46:51;4.97;;;1.60;;
33160;SDS011;19522;45.656;11.302;2023-07-13T08:49:21;1.85;;;1.10;;
33160;SDS011;19522;45.656;11.302;2023-07-13T08:54:47;2.70;;;1.00;;
33160;SDS011;19522;45.656;11.302;2023-07-13T08:57:20;3.13;;;1.10;;
33160;SDS011;19522;45.656;11.302;2023-07-13T08:59:55;4.43;;;1.23;;
33160;SDS011;19522;45.656;11.302;2023-07-13T09:05:16;4.15;;;1.25;;
33160;SDS011;19522;45.656;11.302;2023-07-13T09:10:41;2.42;;;1.10;;
33160;SDS011;19522;45.656;11.302;2023-07-13T09:15:41;3.10;;;1.13;;
33160;SDS011;19522;45.656;11.302;2023-07-13T09:21:14;3.67;;;1.02;;
33160;SDS011;19522;45.656;11.302;2023-07-13T09:23:38;3.05;;;1.27;;
33160;SDS011;19522;45.656;11.302;2023-07-13T09:26:15;3.72;;;1.05;;
33160;SDS011;19522;45.656;11.302;2023-07-13T09:28:44;3.97;;;1.40;;
33160;SDS011;19522;45.656;11.302;2023-07-13T09:31:28;3.33;;;1.25;;
33160;SDS011;19522;45.656;11.302;2023-07-13T09:33:59;3.95;;;1.20;;
33160;SDS011;19522;45.656;11.302;2023-07-13T09:36:26;4.80;;;1.40;;
33160;SDS011;19522;45.656;11.302;2023-07-13T09:42:01;4.70;;;1.23;;
33160;SDS011;19522;45.656;11.302;2023-07-13T09:44:39;5.50;;;1.52;;
33160;SDS011;19522;45.656;11.302;2023-07-13T09:47:18;2.75;;;1.33;;
33160;SDS011;19522;45.656;11.302;2023-07-13T09:49:48;5.43;;;1.58;;
33160;SDS011;19522;45.656;11.302;2023-07-13T09:52:20;3.83;;;1.42;;
33160;SDS011;19522;45.656;11.302;2023-07-13T09:54:49;4.15;;;1.13;;
33160;SDS011;19522;45.656;11.302;2023-07-13T09:57:16;3.65;;;1.20;;
33160;SDS011;19522;45.656;11.302;2023-07-13T09:59:48;4.85;;;1.50;;
33160;SDS011;19522;45.656;11.302;2023-07-13T10:02:28;3.67;;;1.58;;
33160;SDS011;19522;45.656;11.302;2023-07-13T10:04:59;3.55;;;1.52;;
33160;SDS011;19522;45.656;11.302;2023-07-13T10:07:28;3.63;;;1.15;;
33160;SDS011;19522;45.656;11.302;2023-07-13T10:09:56;4.47;;;1.70;;
33160;SDS011;19522;45.656;11.302;2023-07-13T10:12:23;4.35;;;2.38;;
33160;SDS011;19522;45.656;11.302;2023-07-13T10:14:51;3.10;;;1.38;;
33160;SDS011;19522;45.656;11.302;2023-07-13T10:17:21;3.63;;;1.20;;
33160;SDS011;19522;45.656;11.302;2023-07-13T10:19:58;5.75;;;1.40;;
33160;SDS011;19522;45.656;11.302;2023-07-13T10:22:31;4.03;;;1.23;;
33160;SDS011;19522;45.656;11.302;2023-07-13T10:25:17;3.00;;;1.50;;
33160;SDS011;19522;45.656;11.302;2023-07-13T10:27:48;3.58;;;1.30;;
33160;SDS011;19522;45.656;11.302;2023-07-13T10:32:53;2.40;;;1.45;;
33160;SDS011;19522;45.656;11.302;2023-07-13T10:35:20;2.92;;;1.33;;
33160;SDS011;19522;45.656;11.302;2023-07-13T10:38:32;4.85;;;1.60;;
33160;SDS011;19522;45.656;11.302;2023-07-13T10:40:44;4.70;;;1.95;;
33160;SDS011;19522;45.656;11.302;2023-07-13T10:43:20;4.43;;;1.45;;
33160;SDS011;19522;45.656;11.302;2023-07-13T10:45:52;4.00;;;1.63;;
33160;SDS011;19522;45.656;11.302;2023-07-13T10:48:19;4.45;;;1.92;;
33160;SDS011;19522;45.656;11.302;2023-07-13T10:50:49;6.70;;;1.85;;
33160;SDS011;19522;45.656;11.302;2023-07-13T10:53:21;5.57;;;1.98;;
33160;SDS011;19522;45.656;11.302;2023-07-13T10:55:55;3.55;;;1.50;;
33160;SDS011;19522;45.656;11.302;2023-07-13T11:03:26;4.40;;;1.48;;
33160;SDS011;19522;45.656;11.302;2023-07-13T11:06:04;6.60;;;1.98;;
33160;SDS011;19522;45.656;11.302;2023-07-13T11:08:37;4.22;;;1.92;;
33160;SDS011;19522;45.656;11.302;2023-07-13T11:11:35;4.93;;;1.75;;
33160;SDS011;19522;45.656;11.302;2023-07-13T11:14:25;5.68;;;2.58;;
33160;SDS011;19522;45.656;11.302;2023-07-13T11:20:07;5.80;;;1.77;;
33160;SDS011;19522;45.656;11.302;2023-07-13T11:22:45;6.80;;;1.77;;
33160;SDS011;19522;45.656;11.302;2023-07-13T11:25:26;4.20;;;1.70;;
33160;SDS011;19522;45.656;11.302;2023-07-13T11:28:13;5.03;;;1.52;;
33160;SDS011;19522;45.656;11.302;2023-07-13T11:30:50;4.80;;;1.88;;
33160;SDS011;19522;45.656;11.302;2023-07-13T11:33:51;4.60;;;2.03;;
33160;SDS011;19522;45.656;11.302;2023-07-13T11:36:20;3.67;;;1.83;;
33160;SDS011;19522;45.656;11.302;2023-07-13T11:38:58;7.55;;;2.22;;
33160;SDS011;19522;45.656;11.302;2023-07-13T11:41:27;6.38;;;1.90;;
33160;SDS011;19522;45.656;11.302;2023-07-13T11:46:43;5.82;;;1.60;;
33160;SDS011;19522;45.656;11.302;2023-07-13T11:49:13;5.25;;;1.70;;
33160;SDS011;19522;45.656;11.302;2023-07-13T11:51:41;3.53;;;1.70;;
33160;SDS011;19522;45.656;11.302;2023-07-13T11:54:28;4.78;;;2.15;;
33160;SDS011;19522;45.656;11.302;2023-07-13T11:57:44;5.38;;;1.90;;
33160;SDS011;19522;45.656;11.302;2023-07-13T11:59:50;3.65;;;2.10;;
33160;SDS011;19522;45.656;11.302;2023-07-13T12:02:37;4.28;;;2.03;;
33160;SDS011;19522;45.656;11.302;2023-07-13T12:05:09;8.02;;;2.95;;
33160;SDS011;19522;45.656;11.302;2023-07-13T12:07:38;6.65;;;2.60;;
33160;SDS011;19522;45.656;11.302;2023-07-13T12:13:03;7.90;;;2.63;;
33160;SDS011;19522;45.656;11.302;2023-07-13T12:18:37;6.85;;;2.80;;
33160;SDS011;19522;45.656;11.302;2023-07-13T12:20:59;6.18;;;2.65;;
33160;SDS011;19522;45.656;11.302;2023-07-13T12:26:04;7.72;;;2.47;;
33160;SDS011;19522;45.656;11.302;2023-07-13T12:28:36;5.28;;;2.30;;
33160;SDS011;19522;45.656;11.302;2023-07-13T12:31:04;8.50;;;3.20;;
33160;SDS011;19522;45.656;11.302;2023-07-13T12:33:33;7.82;;;3.00;;
33160;SDS011;19522;45.656;11.302;2023-07-13T12:36:00;8.05;;;3.13;;
33160;SDS011;19522;45.656;11.302;2023-07-13T12:38:30;6.70;;;2.83;;
33160;SDS011;19522;45.656;11.302;2023-07-13T12:40:58;15.00;;;3.70;;
33160;SDS011;19522;45.656;11.302;2023-07-13T12:43:34;8.75;;;3.15;;
33160;SDS011;19522;45.656;11.302;2023-07-13T12:46:20;9.57;;;3.40;;
33160;SDS011;19522;45.656;11.302;2023-07-13T12:48:53;9.90;;;3.22;;
33160;SDS011;19522;45.656;11.302;2023-07-13T12:51:26;8.32;;;3.50;;
33160;SDS011;19522;45.656;11.302;2023-07-13T12:53:57;10.50;;;3.70;;
33160;SDS011;19522;45.656;11.302;2023-07-13T12:56:56;7.53;;;3.78;;
33160;SDS011;19522;45.656;11.302;2023-07-13T12:59:24;6.85;;;3.60;;
33160;SDS011;19522;45.656;11.302;2023-07-13T13:01:54;7.68;;;3.28;;
33160;SDS011;19522;45.656;11.302;2023-07-13T13:04:20;7.93;;;3.13;;
33160;SDS011;19522;45.656;11.302;2023-07-13T13:06:46;7.07;;;3.72;;
33160;SDS011;19522;45.656;11.302;2023-07-13T13:09:14;9.10;;;3.92;;
33160;SDS011;19522;45.656;11.302;2023-07-13T13:11:40;6.50;;;3.53;;
33160;SDS011;19522;45.656;11.302;2023-07-13T13:14:07;8.82;;;3.58;;
33160;SDS011;19522;45.656;11.302;2023-07-13T13:16:54;8.02;;;4.15;;
33160;SDS011;19522;45.656;11.302;2023-07-13T13:19:20;8.57;;;3.58;;
33160;SDS011;19522;45.656;11.302;2023-07-13T13:21:52;10.77;;;4.45;;
33160;SDS011;19522;45.656;11.302;2023-07-13T13:24:20;20.25;;;5.40;;
33160;SDS011;19522;45.656;11.302;2023-07-13T13:26:47;10.07;;;4.10;;
33160;SDS011;19522;45.656;11.302;2023-07-13T13:29:21;10.80;;;3.60;;
33160;SDS011;19522;45.656;11.302;2023-07-13T13:31:52;8.93;;;3.10;;
33160;SDS011;19522;45.656;11.302;2023-07-13T13:34:19;5.82;;;2.55;;
33160;SDS011;19522;45.656;11.302;2023-07-13T13:36:48;8.70;;;2.65;;
33160;SDS011;19522;45.656;11.302;2023-07-13T13:39:22;5.68;;;2.67;;
33160;SDS011;19522;45.656;11.302;2023-07-13T13:41:51;6.82;;;2.90;;
33160;SDS011;19522;45.656;11.302;2023-07-13T13:44:18;8.00;;;3.08;;
33160;SDS011;19522;45.656;11.302;2023-07-13T13:46:46;9.90;;;3.13;;
33160;SDS011;19522;45.656;11.302;2023-07-13T13:49:14;8.68;;;2.90;;
33160;SDS011;19522;45.656;11.302;2023-07-13T13:51:46;5.68;;;2.70;;
33160;SDS011;19522;45.656;11.302;2023-07-13T13:54:12;6.03;;;2.22;;
33160;SDS011;19522;45.656;11.302;2023-07-13T13:56:44;8.73;;;2.63;;
33160;SDS011;19522;45.656;11.302;2023-07-13T13:59:11;5.10;;;2.88;;
33160;SDS011;19522;45.656;11.302;2023-07-13T14:01:37;7.88;;;2.75;;
33160;SDS011;19522;45.656;11.302;2023-07-13T14:04:03;7.05;;;2.92;;
33160;SDS011;19522;45.656;11.302;2023-07-13T14:06:31;6.03;;;2.75;;
33160;SDS011;19522;45.656;11.302;2023-07-13T14:08:57;5.28;;;2.90;;
33160;SDS011;19522;45.656;11.302;2023-07-13T14:11:23;7.38;;;3.03;;
33160;SDS011;19522;45.656;11.302;2023-07-13T14:13:58;5.47;;;2.80;;
33160;SDS011;19522;45.656;11.302;2023-07-13T14:16:26;5.85;;;3.13;;
33160;SDS011;19522;45.656;11.302;2023-07-13T14:18:59;6.70;;;2.55;;
33160;SDS011;19522;45.656;11.302;2023-07-13T14:21:26;10.10;;;2.92;;
33160;SDS011;19522;45.656;11.302;2023-07-13T14:23:53;9.00;;;3.13;;
33160;SDS011;19522;45.656;11.302;2023-07-13T14:26:25;7.32;;;3.15;;
33160;SDS011;19522;45.656;11.302;2023-07-13T14:28:55;7.85;;;2.88;;
33160;SDS011;19522;45.656;11.302;2023-07-13T14:31:23;7.15;;;2.85;;
33160;SDS011;19522;45.656;11.302;2023-07-13T14:33:50;9.63;;;3.05;;
33160;SDS011;19522;45.656;11.302;2023-07-13T14:38:50;5.53;;;2.80;;
33160;SDS011;19522;45.656;11.302;2023-07-13T14:41:15;7.28;;;3.20;;
33160;SDS011;19522;45.656;11.302;2023-07-13T14:43:41;8.73;;;2.80;;
33160;SDS011;19522;45.656;11.302;2023-07-13T14:46:28;5.85;;;2.95;;
33160;SDS011;19522;45.656;11.302;2023-07-13T14:48:59;6.13;;;2.50;;
33160;SDS011;19522;45.656;11.302;2023-07-13T14:51:38;4.45;;;2.30;;
33160;SDS011;19522;45.656;11.302;2023-07-13T14:54:04;5.03;;;2.70;;
33160;SDS011;19522;45.656;11.302;2023-07-13T14:56:31;8.15;;;2.65;;
33160;SDS011;19522;45.656;11.302;2023-07-13T14:58:57;5.00;;;2.53;;
33160;SDS011;19522;45.656;11.302;2023-07-13T15:01:26;6.40;;;2.40;;
33160;SDS011;19522;45.656;11.302;2023-07-13T15:03:52;5.25;;;2.55;;
33160;SDS011;19522;45.656;11.302;2023-07-13T15:06:18;6.95;;;2.70;;
33160;SDS011;19522;45.656;11.302;2023-07-13T15:08:45;5.45;;;2.40;;
33160;SDS011;19522;45.656;11.302;2023-07-13T15:11:11;5.80;;;2.67;;
33160;SDS011;19522;45.656;11.302;2023-07-13T15:13:38;7.60;;;2.50;;
33160;SDS011;19522;45.656;11.302;2023-07-13T15:16:09;4.43;;;2.25;;
33160;SDS011;19522;45.656;11.302;2023-07-13T15:18:42;7.20;;;2.60;;
33160;SDS011;19522;45.656;11.302;2023-07-13T15:21:11;4.40;;;2.08;;
33160;SDS011;19522;45.656;11.302;2023-07-13T15:23:45;6.80;;;2.40;;
33160;SDS011;19522;45.656;11.302;2023-07-13T15:26:15;9.85;;;2.88;;